createdAt,value
2018-06-05T00:01:59.260Z,99.90
2018-06-05T00:04:26.768Z,99.90
2018-06-05T00:06:54.284Z,99.90
2018-06-05T00:09:21.768Z,99.90
2018-06-05T00:11:49.279Z,99.90
2018-06-05T00:14:16.767Z,99.90
2018-06-05T00:16:44.285Z,99.90
2018-06-05T00:19:11.774Z,99.90
2018-06-05T00:21:39.296Z,99.90
2018-06-05T00:24:06.784Z,99.90
2018-06-05T00:26:34.304Z,99.90
2018-06-05T00:29:01.820Z,99.90
2018-06-05T00:33:56.784Z,99.90
2018-06-05T00:36:24.292Z,99.90
2018-06-05T00:41:19.252Z,99.90
2018-06-05T00:43:46.745Z,99.90
2018-06-05T00:46:14.243Z,99.90
2018-06-05T00:48:41.792Z,99.90
2018-06-05T00:53:42.593Z,99.90
2018-06-05T00:56:10.107Z,99.90
2018-06-05T00:58:37.617Z,99.90
2018-06-05T01:01:05.137Z,99.90
2018-06-05T01:03:32.653Z,99.90
2018-06-05T01:06:00.151Z,99.90
2018-06-05T01:08:27.663Z,99.90
2018-06-05T01:10:55.165Z,99.90
2018-06-05T01:13:22.688Z,99.90
2018-06-05T01:15:50.509Z,99.90
2018-06-05T01:18:18.025Z,99.90
2018-06-05T01:20:45.528Z,99.90
2018-06-05T01:23:13.057Z,99.90
2018-06-05T01:25:40.552Z,99.90
2018-06-05T01:28:08.116Z,99.90
2018-06-05T01:30:35.600Z,99.90
2018-06-05T01:33:03.657Z,99.90
2018-06-05T01:35:31.171Z,99.90
2018-06-05T01:37:58.697Z,99.90
2018-06-05T01:40:26.188Z,99.90
2018-06-05T01:42:53.693Z,99.90
2018-06-05T01:45:21.236Z,99.90
2018-06-05T01:47:48.743Z,99.90
2018-06-05T01:50:16.233Z,99.90
2018-06-05T01:52:43.764Z,99.90
2018-06-05T01:57:38.712Z,99.90
2018-06-05T02:01:09.667Z,99.90
2018-06-05T02:03:37.185Z,99.90
2018-06-05T02:08:32.166Z,99.90
2018-06-05T02:10:59.704Z,99.90
2018-06-05T02:13:27.229Z,99.90
2018-06-05T02:18:22.169Z,99.90
2018-06-05T02:20:49.665Z,99.90
2018-06-05T02:23:17.180Z,99.90
2018-06-05T02:25:44.688Z,99.90
2018-06-05T02:28:12.336Z,99.90
2018-06-05T02:34:01.009Z,99.90
2018-06-05T02:36:28.516Z,99.90
2018-06-05T02:43:50.933Z,99.90
2018-06-05T02:46:18.480Z,99.90
2018-06-05T02:48:46.020Z,99.90
2018-06-05T03:01:03.344Z,99.90
2018-06-05T03:03:30.877Z,99.90
2018-06-05T03:05:58.416Z,99.90
2018-06-05T03:10:53.386Z,99.90
2018-06-05T03:13:20.918Z,99.90
2018-06-05T03:15:48.425Z,99.90
2018-06-05T03:18:15.981Z,99.90
2018-06-05T03:20:43.503Z,99.90
2018-06-05T03:23:11.011Z,99.90
2018-06-05T03:25:38.542Z,99.90
2018-06-05T03:28:06.048Z,99.90
2018-06-05T03:30:33.589Z,99.90
2018-06-05T03:33:01.103Z,99.90
2018-06-05T03:37:56.226Z,99.90
2018-06-05T03:40:23.748Z,99.90
2018-06-05T03:42:51.244Z,99.90
2018-06-05T03:45:18.760Z,99.90
2018-06-05T03:47:46.293Z,99.90
2018-06-05T03:50:13.817Z,99.90
2018-06-05T03:55:08.766Z,99.90
2018-06-05T03:57:36.277Z,99.90
2018-06-05T04:00:03.870Z,99.90
2018-06-05T04:02:31.368Z,99.90
2018-06-05T04:04:58.889Z,99.90
2018-06-05T04:07:26.408Z,99.90
2018-06-05T04:09:53.916Z,99.90
2018-06-05T04:12:21.408Z,99.90
2018-06-05T04:14:48.924Z,99.90
2018-06-05T04:17:16.526Z,99.90
2018-06-05T04:19:44.039Z,99.90
2018-06-05T04:22:11.541Z,99.90
2018-06-05T04:24:39.056Z,99.90
2018-06-05T04:27:06.600Z,99.90
2018-06-05T04:29:34.109Z,99.90
2018-06-05T04:32:01.672Z,99.90
2018-06-05T04:34:29.236Z,99.90
2018-06-05T04:36:56.806Z,99.90
2018-06-05T04:39:24.343Z,99.90
2018-06-05T04:41:51.832Z,99.90
2018-06-05T04:44:19.384Z,99.90
2018-06-05T04:46:46.965Z,99.90
2018-06-05T04:49:14.465Z,99.90
2018-06-05T04:51:42.160Z,99.90
2018-06-05T04:54:09.651Z,99.90
2018-06-05T04:59:04.633Z,99.90
2018-06-05T05:01:32.165Z,99.90
2018-06-05T05:03:59.670Z,99.90
2018-06-05T05:06:27.184Z,99.90
2018-06-05T05:08:54.676Z,99.90
2018-06-05T05:11:22.241Z,99.90
2018-06-05T05:13:50.140Z,99.90
2018-06-05T05:16:17.705Z,99.90
2018-06-05T05:18:45.204Z,99.90
2018-06-05T05:21:12.742Z,99.90
2018-06-05T05:23:40.228Z,99.90
2018-06-05T05:26:07.754Z,99.90
2018-06-05T05:28:35.245Z,99.90
2018-06-05T05:31:02.825Z,99.90
2018-06-05T05:33:30.384Z,99.90
2018-06-05T05:35:58.005Z,99.90
2018-06-05T05:38:25.488Z,99.90
2018-06-05T05:40:53.349Z,99.90
2018-06-05T05:43:20.853Z,99.90
2018-06-05T05:48:15.923Z,99.90
2018-06-05T05:50:43.612Z,99.90
2018-06-05T05:53:11.153Z,99.90
2018-06-05T05:55:38.795Z,99.90
2018-06-05T05:58:06.475Z,99.90
2018-06-05T06:00:34.508Z,99.90
2018-06-05T06:03:02.040Z,99.90
2018-06-05T06:05:29.784Z,99.90
2018-06-05T06:07:57.344Z,99.90
2018-06-05T06:10:24.973Z,99.90
2018-06-05T06:12:52.552Z,99.90
2018-06-05T06:15:20.412Z,99.90
2018-06-05T06:17:48.037Z,99.90
2018-06-05T06:20:15.680Z,99.90
2018-06-05T06:22:43.487Z,99.90
2018-06-05T06:25:12.025Z,99.90
2018-06-05T06:30:07.653Z,99.90
2018-06-05T06:32:35.257Z,99.90
2018-06-05T06:35:02.820Z,99.90
2018-06-05T06:37:30.481Z,99.90
2018-06-05T06:39:58.027Z,99.90
2018-06-05T06:42:25.725Z,99.90
2018-06-05T06:44:53.349Z,99.90
2018-06-05T06:47:21.760Z,99.90
2018-06-05T06:49:49.344Z,99.90
2018-06-05T06:52:16.888Z,99.90
2018-06-05T06:54:44.415Z,99.90
2018-06-05T06:57:11.924Z,99.90
2018-06-05T06:59:39.408Z,99.90
2018-06-05T07:02:07.031Z,99.90
2018-06-05T07:04:34.516Z,99.90
2018-06-05T07:07:02.039Z,99.90
2018-06-05T07:09:29.556Z,99.90
2018-06-05T07:14:24.532Z,99.90
2018-06-05T07:16:52.062Z,99.90
2018-06-05T07:19:19.548Z,99.90
2018-06-05T07:21:47.073Z,99.90
2018-06-05T07:24:14.579Z,99.90
2018-06-05T07:26:42.144Z,99.90
2018-06-05T07:29:09.677Z,99.90
2018-06-05T07:31:37.269Z,99.90
2018-06-05T07:34:04.800Z,99.90
2018-06-05T07:36:32.355Z,99.90
2018-06-05T07:39:00.105Z,99.90
2018-06-05T07:41:27.958Z,99.90
2018-06-05T07:43:55.552Z,99.90
2018-06-05T07:46:23.292Z,99.90
2018-06-05T07:48:50.907Z,99.90
2018-06-05T07:53:45.933Z,99.90
2018-06-05T07:58:41.489Z,99.90
2018-06-05T08:01:09.106Z,99.90
2018-06-05T08:03:37.265Z,99.90
2018-06-05T08:06:04.813Z,99.90
2018-06-05T08:08:32.539Z,99.90
2018-06-05T08:11:00.121Z,99.90
2018-06-05T08:13:27.731Z,99.90
2018-06-05T08:15:55.513Z,99.90
2018-06-05T08:20:50.570Z,99.90
2018-06-05T08:23:18.143Z,99.90
2018-06-05T08:25:46.093Z,99.90
2018-06-05T08:28:13.629Z,99.90
2018-06-05T08:30:41.161Z,99.90
2018-06-05T08:33:08.834Z,99.90
2018-06-05T09:26:22.184Z,99.90
2018-06-05T09:28:49.137Z,99.90
2018-06-05T09:31:18.037Z,99.90
2018-06-05T09:33:45.191Z,99.90
2018-06-05T09:36:12.272Z,99.90
2018-06-05T09:38:54.340Z,99.90
2018-06-05T09:45:34.110Z,99.90
2018-06-05T09:50:28.355Z,99.90
2018-06-05T09:54:47.976Z,99.90
2018-06-05T09:57:15.702Z,99.90
2018-06-05T09:59:43.324Z,99.90
2018-06-05T10:02:10.916Z,99.90
2018-06-05T10:04:38.516Z,99.90
2018-06-05T10:07:06.100Z,98.90
2018-06-05T10:09:33.773Z,98.60
2018-06-05T10:14:28.908Z,97.90
2018-06-05T10:19:24.017Z,96.60
2018-06-05T10:24:19.245Z,96.50
2018-06-05T10:29:14.443Z,97.50
2018-06-05T10:31:42.069Z,97.50
2018-06-05T10:34:09.817Z,95.30
2018-06-05T10:36:37.501Z,93.30
2018-06-05T10:41:33.821Z,93.30
2018-06-05T10:44:01.686Z,90.50
2018-06-05T10:46:29.550Z,87.40
2018-06-05T10:48:57.064Z,90.70
2018-06-05T10:51:24.569Z,90.10
2018-06-05T10:53:52.089Z,91.60
2018-06-05T10:56:19.639Z,91.90
2018-06-05T10:58:47.179Z,90.10
2018-06-05T11:01:14.707Z,91.10
2018-06-05T11:03:42.209Z,88.90
2018-06-05T11:06:09.754Z,91.80
2018-06-05T11:08:37.251Z,90.00
2018-06-05T11:11:04.777Z,89.40
2018-06-05T11:13:32.320Z,86.30
2018-06-05T11:18:27.256Z,88.60
2018-06-05T11:20:54.791Z,84.40
2018-06-05T11:23:22.302Z,74.30
2018-06-05T11:25:49.819Z,73.10
2018-06-05T11:28:17.318Z,77.90
2018-06-05T11:30:44.845Z,74.90
2018-06-05T11:33:12.376Z,76.10
2018-06-05T11:35:39.900Z,75.50
2018-06-05T11:38:07.416Z,74.60
2018-06-05T11:40:35.014Z,76.50
2018-06-05T11:43:03.064Z,77.10
2018-06-05T11:45:30.625Z,71.60
2018-06-05T11:47:58.202Z,71.70
2018-06-05T11:50:25.973Z,72.20
2018-06-05T11:52:53.692Z,68.80
2018-06-05T11:55:21.436Z,69.20
2018-06-05T11:57:49.076Z,70.40
2018-06-05T12:00:16.697Z,67.70
2018-06-05T12:02:44.389Z,67.10
2018-06-05T12:05:11.985Z,69.00
2018-06-05T12:07:39.583Z,71.20
2018-06-05T12:10:07.217Z,69.80
2018-06-05T12:12:34.788Z,69.80
2018-06-05T12:15:02.432Z,67.10
2018-06-05T12:17:30.948Z,68.80
2018-06-05T12:19:59.338Z,68.00
2018-06-05T12:22:27.365Z,67.00
2018-06-05T12:24:55.005Z,60.80
2018-06-05T12:27:22.513Z,57.20
2018-06-05T12:29:50.040Z,63.30
2018-06-05T12:32:17.568Z,68.90
2018-06-05T12:34:45.064Z,68.50
2018-06-05T12:37:12.588Z,74.10
2018-06-05T12:39:40.077Z,75.30
2018-06-05T12:42:07.604Z,71.50
2018-06-05T12:44:35.098Z,71.10
2018-06-05T12:47:02.645Z,63.20
2018-06-05T12:49:30.141Z,67.20
2018-06-05T12:51:57.734Z,67.80
2018-06-05T12:54:25.328Z,66.90
2018-06-05T12:56:52.903Z,65.20
2018-06-05T13:01:47.856Z,60.70
2018-06-05T13:04:15.352Z,58.50
2018-06-05T13:06:42.864Z,59.60
2018-06-05T13:09:10.500Z,60.20
2018-06-05T13:11:38.017Z,61.80
2018-06-05T13:14:05.528Z,58.40
2018-06-05T13:19:00.460Z,64.00
2018-06-05T13:21:27.960Z,65.90
2018-06-05T13:23:55.451Z,64.50
2018-06-05T13:26:22.962Z,64.10
2018-06-05T13:28:50.448Z,63.60
2018-06-05T13:31:17.966Z,62.60
2018-06-05T13:33:45.479Z,62.00
2018-06-05T13:36:13.646Z,61.70
2018-06-05T13:38:41.155Z,61.50
2018-06-05T13:41:08.640Z,59.10
2018-06-05T13:43:36.152Z,56.80
2018-06-05T13:46:03.672Z,57.80
2018-06-05T13:48:31.196Z,62.60
2018-06-05T13:50:58.689Z,68.10
2018-06-05T13:53:26.221Z,69.30
2018-06-05T13:55:53.724Z,71.30
2018-06-05T13:58:21.257Z,65.00
2018-06-05T14:00:48.748Z,62.10
2018-06-05T14:03:16.274Z,65.20
2018-06-05T14:05:43.765Z,61.20
2018-06-05T14:10:38.713Z,60.60
2018-06-05T14:13:06.222Z,59.30
2018-06-05T14:15:33.712Z,56.80
2018-06-05T14:18:01.249Z,58.80
2018-06-05T14:20:28.740Z,55.70
2018-06-05T14:22:56.270Z,56.30
2018-06-05T14:25:23.789Z,56.40
2018-06-05T14:27:51.305Z,56.60
2018-06-05T14:30:18.796Z,56.90
2018-06-05T14:32:46.340Z,55.40
2018-06-05T14:35:13.848Z,57.50
2018-06-05T14:37:41.356Z,57.20
2018-06-05T14:40:08.961Z,58.80
2018-06-05T14:42:36.485Z,57.50
2018-06-05T14:45:04.697Z,56.00
2018-06-05T14:47:32.148Z,58.50
2018-06-05T14:49:59.652Z,58.70
2018-06-05T14:52:27.140Z,58.30
2018-06-05T14:54:54.667Z,59.50
2018-06-05T14:57:22.180Z,62.90
2018-06-05T14:59:49.700Z,57.50
2018-06-05T15:02:17.188Z,58.70
2018-06-05T15:04:44.710Z,59.00
2018-06-05T15:07:12.233Z,60.70
2018-06-05T15:09:39.746Z,62.20
2018-06-05T15:12:07.278Z,63.30
2018-06-05T15:14:34.799Z,66.50
2018-06-05T15:17:02.292Z,66.00
2018-06-05T15:19:29.829Z,61.00
2018-06-05T15:21:57.320Z,62.40
2018-06-05T15:24:24.853Z,64.80
2018-06-05T15:26:52.388Z,64.10
2018-06-05T15:29:19.876Z,65.60
2018-06-05T15:31:47.415Z,66.80
2018-06-05T15:34:14.946Z,67.10
2018-06-05T15:36:42.472Z,69.90
2018-06-05T15:39:10.025Z,70.80
2018-06-05T15:41:37.573Z,71.40
2018-06-05T15:44:05.124Z,71.40
2018-06-05T15:46:32.632Z,68.10
2018-06-05T15:49:00.253Z,71.20
2018-06-05T15:51:27.779Z,70.60
2018-06-05T15:53:55.308Z,72.70
2018-06-05T15:56:22.848Z,71.50
2018-06-05T15:58:50.346Z,73.00
2018-06-05T16:01:17.880Z,72.20
2018-06-05T16:03:45.411Z,75.10
2018-06-05T16:06:12.953Z,73.70
2018-06-05T16:08:40.445Z,72.70
2018-06-05T16:11:07.952Z,69.80
2018-06-05T16:13:35.486Z,72.70
2018-06-05T16:16:02.992Z,75.50
2018-06-05T16:18:30.535Z,73.90
2018-06-05T16:20:58.078Z,75.10
2018-06-05T16:23:25.597Z,74.80
2018-06-05T16:25:53.188Z,76.30
2018-06-05T16:28:20.717Z,73.60
2018-06-05T16:30:48.404Z,70.10
2018-06-05T16:33:15.936Z,73.70
2018-06-05T16:35:43.457Z,76.40
2018-06-05T16:38:11.000Z,75.50
2018-06-05T16:40:38.520Z,75.80
2018-06-05T16:43:06.153Z,74.00
2018-06-05T16:45:33.648Z,76.20
2018-06-05T16:48:01.545Z,75.90
2018-06-05T16:50:29.253Z,76.30
2018-06-05T16:52:56.835Z,76.40
2018-06-05T16:55:25.241Z,75.40
2018-06-05T16:57:52.942Z,73.80
2018-06-05T17:00:20.799Z,75.10
2018-06-05T17:02:48.477Z,75.90
2018-06-05T17:05:16.701Z,74.30
2018-06-05T17:07:44.946Z,77.00
2018-06-05T17:10:12.974Z,78.70
2018-06-05T17:12:40.729Z,78.00
2018-06-05T17:15:08.523Z,80.80
2018-06-05T17:17:36.259Z,77.50
2018-06-05T17:20:03.998Z,78.90
2018-06-05T17:22:31.605Z,79.20
2018-06-05T17:25:00.193Z,80.70
2018-06-05T17:27:28.008Z,79.60
2018-06-05T17:29:55.545Z,80.40
2018-06-05T17:32:23.247Z,79.50
2018-06-05T17:34:51.145Z,79.50
2018-06-05T17:37:18.890Z,80.60
2018-06-05T17:39:47.157Z,83.50
2018-06-05T17:42:14.748Z,84.10
2018-06-05T17:44:42.856Z,84.80
2018-06-05T17:47:10.367Z,83.40
2018-06-05T17:49:38.032Z,85.20
2018-06-05T17:52:05.635Z,85.30
2018-06-05T17:54:33.344Z,87.50
2018-06-05T17:57:00.917Z,87.40
2018-06-05T17:59:28.540Z,88.80
2018-06-05T18:01:56.882Z,89.10
2018-06-05T18:04:24.427Z,89.10
2018-06-05T18:06:52.099Z,89.90
2018-06-05T18:09:19.637Z,90.10
2018-06-05T18:11:47.194Z,91.40
2018-06-05T18:14:14.735Z,89.60
2018-06-05T18:16:42.293Z,90.60
2018-06-05T18:19:10.157Z,91.00
2018-06-05T18:21:38.032Z,91.90
2018-06-05T18:24:05.847Z,91.70
2018-06-05T18:26:34.135Z,93.30
2018-06-05T18:29:01.806Z,92.50
2018-06-05T18:31:29.663Z,94.50
2018-06-05T18:33:57.390Z,96.60
2018-06-05T18:36:25.072Z,99.00
2018-06-05T18:38:53.005Z,99.90
2018-06-05T18:41:21.174Z,99.90
2018-06-05T18:43:48.896Z,99.90
2018-06-05T18:46:16.815Z,99.90
2018-06-05T18:48:44.585Z,99.90
2018-06-05T18:51:13.289Z,99.90
2018-06-05T18:53:40.965Z,99.90
2018-06-05T18:56:08.808Z,99.90
2018-06-05T18:58:36.617Z,99.90
2018-06-05T19:01:04.430Z,99.90
2018-06-05T19:03:33.200Z,99.90
2018-06-05T19:06:01.405Z,99.90
2018-06-05T19:08:28.971Z,99.90
2018-06-05T19:10:56.535Z,99.90
2018-06-05T19:13:24.189Z,99.90
2018-06-05T19:15:51.736Z,99.90
2018-06-05T19:18:19.585Z,99.90
2018-06-05T19:20:47.349Z,99.90
2018-06-05T19:23:15.150Z,99.90
2018-06-05T19:25:42.869Z,99.90
2018-06-05T19:28:10.573Z,99.90
2018-06-05T19:30:38.123Z,99.90
2018-06-05T19:33:05.804Z,99.90
2018-06-05T19:35:33.384Z,99.90
2018-06-05T19:38:01.101Z,99.90
2018-06-05T19:40:28.728Z,99.90
2018-06-05T19:42:57.194Z,99.90
2018-06-05T19:45:24.705Z,99.90
2018-06-05T19:47:52.217Z,99.90
2018-06-05T19:55:14.690Z,99.90
2018-06-05T19:57:42.225Z,99.90
2018-06-05T20:00:09.805Z,99.90
2018-06-05T20:02:37.401Z,99.90
2018-06-05T20:05:05.128Z,99.90
2018-06-05T20:10:00.149Z,99.90
2018-06-05T20:12:27.725Z,99.90
2018-06-05T20:14:55.236Z,99.90
2018-06-05T20:17:22.792Z,99.90
2018-06-05T20:19:50.348Z,99.90
2018-06-05T20:22:18.073Z,99.90
2018-06-05T20:24:45.644Z,99.90
2018-06-05T20:27:13.203Z,99.90
2018-06-05T20:29:40.712Z,99.90
2018-06-05T20:32:08.248Z,99.90
2018-06-05T20:34:35.767Z,99.90
2018-06-05T20:37:03.305Z,99.90
2018-06-05T20:39:30.904Z,99.90
2018-06-05T20:41:58.440Z,99.90
2018-06-05T20:44:26.000Z,99.90
2018-06-05T20:46:53.496Z,99.90
2018-06-05T20:49:21.028Z,99.90
2018-06-05T20:51:48.590Z,99.90
2018-06-05T20:54:16.117Z,99.90
2018-06-05T20:56:43.626Z,99.90
2018-06-05T20:59:11.128Z,99.90
2018-06-05T21:01:38.664Z,99.90
2018-06-05T21:04:06.191Z,99.90
2018-06-05T21:06:33.701Z,99.90
2018-06-05T21:09:01.220Z,99.90
2018-06-05T21:11:28.771Z,99.90
2018-06-05T21:13:56.285Z,99.90
2018-06-05T21:16:23.815Z,99.90
2018-06-05T21:18:51.314Z,99.90
2018-06-05T21:21:18.840Z,99.90
2018-06-05T21:23:46.360Z,99.90
2018-06-05T21:26:13.879Z,99.90
2018-06-05T21:28:41.372Z,99.90
2018-06-05T21:31:08.902Z,99.90
2018-06-05T21:33:36.504Z,99.90
2018-06-05T21:36:04.067Z,99.90
2018-06-05T21:38:31.580Z,99.90
2018-06-05T21:40:59.088Z,99.90
2018-06-05T21:43:26.609Z,99.90
2018-06-05T21:45:54.126Z,99.90
2018-06-05T21:48:21.632Z,99.90
2018-06-05T21:50:49.156Z,99.90
2018-06-05T21:53:16.669Z,99.90
2018-06-05T21:55:44.220Z,99.90
2018-06-05T21:58:11.715Z,99.90
2018-06-05T22:01:13.989Z,99.90
2018-06-05T22:03:41.504Z,99.90
2018-06-05T22:06:09.037Z,99.90
2018-06-05T22:08:36.561Z,99.90
2018-06-05T22:11:04.086Z,99.90
2018-06-05T22:13:31.596Z,99.90
2018-06-05T22:15:59.117Z,99.90
2018-06-05T22:18:26.628Z,99.90
2018-06-05T22:20:54.149Z,99.90
2018-06-05T22:23:21.665Z,99.90
2018-06-05T22:25:49.200Z,99.90
2018-06-05T22:28:16.699Z,99.90
2018-06-05T22:30:44.223Z,99.90
2018-06-05T22:33:11.761Z,99.90
2018-06-05T22:35:39.301Z,99.90
2018-06-05T22:38:06.862Z,99.90
2018-06-05T22:40:34.333Z,99.90
2018-06-05T22:43:01.866Z,99.90
2018-06-05T22:45:29.389Z,99.90
2018-06-05T22:47:56.920Z,99.90
2018-06-05T22:50:24.435Z,99.90
2018-06-05T22:52:51.968Z,99.90
2018-06-05T22:57:46.925Z,99.90
2018-06-05T23:00:21.421Z,99.90
2018-06-05T23:02:48.948Z,99.90
2018-06-05T23:05:16.445Z,99.90
2018-06-05T23:07:43.980Z,99.90
2018-06-05T23:12:38.957Z,99.90
2018-06-05T23:15:06.453Z,99.90
2018-06-05T23:17:33.976Z,99.90
2018-06-05T23:20:01.473Z,99.90
2018-06-05T23:22:28.993Z,99.90
2018-06-05T23:24:56.500Z,99.90
2018-06-05T23:27:24.057Z,99.90
2018-06-05T23:32:19.082Z,99.90
2018-06-05T23:34:46.592Z,99.90
2018-06-05T23:37:14.116Z,99.90
2018-06-05T23:39:41.617Z,99.90
2018-06-05T23:42:09.142Z,99.90
2018-06-05T23:44:36.644Z,99.90
2018-06-05T23:47:04.203Z,99.90
2018-06-05T23:49:31.706Z,99.90
2018-06-05T23:51:59.229Z,99.90
2018-06-05T23:54:26.939Z,99.90
2018-06-05T23:56:54.480Z,99.90
2018-06-05T23:59:21.978Z,99.90
